Socorro, NM

8:21 AM MST on January 16, 2017 (GMT -0700)
Down by the River | | Change Station
Active Advisory: Dense Fog Advisory

Elev 4609 ft 34.07 °N, 106.88 °W | Updated 4 minutes ago

Fog
Fog
36.9 °F
Feels Like 37 °F
N
0.0
Wind Variable Wind from South
Gusts 0.0 mph

Today
High -- | Low -- °F
--% Chance of Precip.
Yesterday
High -- | Low -- °F
Precip. -- in
Pressure 29.99 in
Visibility 0.2 miles
Clouds Overcast 300 ft
Windchill 37 °F
Dew Point 36 °F
Humidity 95%
Rainfall 0.00 in
Snow Depth Not available.
7:12 AM 5:22 PM
Waning Gibbous, 80% visible
METAR KONM 161515Z AUTO 19004KT 1/4SM FG OVC003 02/02 A2999 RMK AO2 T00160015
Pressure 29.99 in
Visibility 0.2 miles
Clouds Overcast 300 ft
Windchill 37 °F
Dew Point 36 °F
Humidity 95%
Rainfall 0.00 in
Snow Depth Not available.
7:12 AM 5:22 PM
Waning Gibbous, 80% visible
METAR KONM 161515Z AUTO 19004KT 1/4SM FG OVC003 02/02 A2999 RMK AO2 T00160015

Get Your Daily Forecast Email!

Thanks for signing up!

Be on the lookout for a verification email in your inbox.

You'll start receiving the daily forecast at 8 AM.

×

10-Day Weather Forecast

Almanac

Astronomy

Jan. 16, 2017 Rise Set
Actual Time
Civil Twilight
Nautical Twilight
Astronomical Twilight
Moon
Length of Visible Light
Length of Day
Tomorrow will be .
, % of the Moon is Illuminated

Today's Extremes

State Highs State Lows

Community

WunderPhotos

Upload Photos

1,962,540 photos uploaded!

WunderBlog® & News

Nearby

Air Quality

  Air Quality AQ Index Pollutant
Not available.

Snow Depth

Station Depth Elevation

Earthquake Activity

City Distance Mag. Time & Date
Minimum magnitude displayed is 2.5.

Coastal Water Temperatures

Place Temperature

Stations

Nearby Weather Stations

Station Location Temp. Windchill Dew Point Humidity Wind Precip. Elev Updated Type
                   

Watches & Warnings

Dense Fog Advisory
Issued: 3:42 AM MST Jan. 16, 2017 – National Weather Service

... Dense fog advisory in effect until 11 am MST this morning...

The National Weather Service in Albuquerque has issued a dense
fog advisory... which is in effect until 11 am MST this morning.

* Location... middle and lower Rio Grande Valley... upper Tularosa
Valley... Chaves County plains and Roosevelt County.

* Timing... dense fog expanding in area through mid morning then
diminishing by late morning.

* Visibility... one quarter mile or less.

* Local impacts... travel will become difficult due to
significantly reduced visibility in dense fog. This includes
Interstate 25 between Socorro and Albuquerque... Highway 54 and
380 near Carrizozo... Highway 285 in Chaves County and Highway 70
between Roswell and Portales.

Precautionary/preparedness actions...

A dense fog advisory means visibilities will be frequently
reduced to less than one half mile. Motorists should drive with
extreme caution.